sensor_id;sensor_type;location;lat;lon;timestamp;pressure;altitude;pressure_sealevel;temperature;humidity
54628;BME280;40525;55.926;21.066;2023-07-22T00:00:49;100985.73;;;16.79;67.01
54628;BME280;40525;55.926;21.066;2023-07-22T00:03:36;100985.30;;;16.77;67.20
54628;BME280;40525;55.926;21.066;2023-07-22T00:06:16;100982.88;;;16.76;67.12
54628;BME280;40525;55.926;21.066;2023-07-22T00:08:57;100988.14;;;16.77;67.19
54628;BME280;40525;55.926;21.066;2023-07-22T00:11:37;100987.71;;;16.78;67.46
54628;BME280;40525;55.926;21.066;2023-07-22T00:14:17;100984.38;;;16.81;67.78
54628;BME280;40525;55.926;21.066;2023-07-22T00:16:57;100984.05;;;16.83;67.45
54628;BME280;40525;55.926;21.066;2023-07-22T00:19:37;100990.17;;;16.85;67.52
54628;BME280;40525;55.926;21.066;2023-07-22T00:22:17;100989.30;;;16.85;67.46
54628;BME280;40525;55.926;21.066;2023-07-22T00:25:02;100992.09;;;16.86;67.63
54628;BME280;40525;55.926;21.066;2023-07-22T00:27:42;100992.67;;;16.84;68.28
54628;BME280;40525;55.926;21.066;2023-07-22T00:30:28;100989.30;;;16.85;68.56
54628;BME280;40525;55.926;21.066;2023-07-22T00:33:02;100983.20;;;16.86;68.24
54628;BME280;40525;55.926;21.066;2023-07-22T00:35:49;100983.20;;;16.88;68.27
54628;BME280;40525;55.926;21.066;2023-07-22T00:38:24;100981.98;;;16.90;67.82
54628;BME280;40525;55.926;21.066;2023-07-22T00:41:11;100985.85;;;16.91;67.84
54628;BME280;40525;55.926;21.066;2023-07-22T00:43:45;100981.61;;;16.91;67.60
54628;BME280;40525;55.926;21.066;2023-07-22T00:46:32;100984.05;;;16.91;67.52
54628;BME280;40525;55.926;21.066;2023-07-22T00:49:07;100983.34;;;16.91;67.57
54628;BME280;40525;55.926;21.066;2023-07-22T00:51:56;100979.02;;;16.92;67.58
54628;BME280;40525;55.926;21.066;2023-07-22T00:54:32;100973.94;;;16.94;67.82
54628;BME280;40525;55.926;21.066;2023-07-22T00:57:20;100970.84;;;16.95;67.75
54628;BME280;40525;55.926;21.066;2023-07-22T00:59:54;100968.30;;;16.96;67.82
54628;BME280;40525;55.926;21.066;2023-07-22T01:02:41;100968.69;;;16.95;67.64
54628;BME280;40525;55.926;21.066;2023-07-22T01:05:30;100970.00;;;16.94;67.65
54628;BME280;40525;55.926;21.066;2023-07-22T01:08:24;100968.95;;;16.94;67.50
54628;BME280;40525;55.926;21.066;2023-07-22T01:10:58;100970.65;;;16.92;67.52
54628;BME280;40525;55.926;21.066;2023-07-22T01:13:46;100965.63;;;16.91;67.58
54628;BME280;40525;55.926;21.066;2023-07-22T01:16:20;100964.16;;;16.91;67.41
54628;BME280;40525;55.926;21.066;2023-07-22T01:19:09;100964.56;;;16.93;67.51
54628;BME280;40525;55.926;21.066;2023-07-22T01:21:44;100968.94;;;16.97;67.75
54628;BME280;40525;55.926;21.066;2023-07-22T01:24:32;100969.97;;;16.97;67.96
54628;BME280;40525;55.926;21.066;2023-07-22T01:27:08;100969.27;;;16.97;68.00
54628;BME280;40525;55.926;21.066;2023-07-22T01:29:55;100967.11;;;16.97;67.99
54628;BME280;40525;55.926;21.066;2023-07-22T01:32:29;100963.39;;;16.97;68.46
54628;BME280;40525;55.926;21.066;2023-07-22T01:35:16;100960.48;;;16.96;68.59
54628;BME280;40525;55.926;21.066;2023-07-22T01:37:56;100959.89;;;16.96;68.76
54628;BME280;40525;55.926;21.066;2023-07-22T01:40:37;100961.03;;;16.98;68.66
54628;BME280;40525;55.926;21.066;2023-07-22T01:43:17;100957.92;;;17.00;68.56
54628;BME280;40525;55.926;21.066;2023-07-22T01:45:58;100956.01;;;17.01;68.32
54628;BME280;40525;55.926;21.066;2023-07-22T01:48:38;100954.29;;;17.01;68.25
54628;BME280;40525;55.926;21.066;2023-07-22T01:51:18;100951.45;;;16.98;68.08
54628;BME280;40525;55.926;21.066;2023-07-22T01:53:58;100953.34;;;16.96;68.05
54628;BME280;40525;55.926;21.066;2023-07-22T01:56:39;100952.38;;;16.95;68.01
54628;BME280;40525;55.926;21.066;2023-07-22T01:59:19;100948.79;;;16.95;68.19
54628;BME280;40525;55.926;21.066;2023-07-22T02:01:59;100948.45;;;16.97;68.44
54628;BME280;40525;55.926;21.066;2023-07-22T02:04:46;100944.75;;;16.97;68.46
54628;BME280;40525;55.926;21.066;2023-07-22T02:07:40;100943.04;;;16.96;68.20
54628;BME280;40525;55.926;21.066;2023-07-22T02:10:20;100946.73;;;16.97;68.20
54628;BME280;40525;55.926;21.066;2023-07-22T02:13:00;100944.35;;;16.95;68.33
54628;BME280;40525;55.926;21.066;2023-07-22T02:15:40;100942.08;;;16.94;68.28
54628;BME280;40525;55.926;21.066;2023-07-22T02:18:21;100944.97;;;16.94;67.96
54628;BME280;40525;55.926;21.066;2023-07-22T02:21:01;100945.71;;;16.93;67.41
54628;BME280;40525;55.926;21.066;2023-07-22T02:23:41;100940.78;;;16.95;67.06
54628;BME280;40525;55.926;21.066;2023-07-22T02:26:21;100937.76;;;16.98;67.15
54628;BME280;40525;55.926;21.066;2023-07-22T02:29:02;100933.61;;;16.99;67.28
54628;BME280;40525;55.926;21.066;2023-07-22T02:31:42;100936.26;;;16.99;67.23
54628;BME280;40525;55.926;21.066;2023-07-22T02:34:24;100934.87;;;16.99;67.45
54628;BME280;40525;55.926;21.066;2023-07-22T02:37:04;100933.84;;;16.96;67.66
54628;BME280;40525;55.926;21.066;2023-07-22T02:39:44;100934.80;;;16.94;67.47
54628;BME280;40525;55.926;21.066;2023-07-22T02:42:24;100934.89;;;16.93;67.73
54628;BME280;40525;55.926;21.066;2023-07-22T02:45:11;100933.83;;;16.93;68.96
54628;BME280;40525;55.926;21.066;2023-07-22T02:47:46;100933.09;;;16.94;70.06
54628;BME280;40525;55.926;21.066;2023-07-22T02:50:32;100932.20;;;16.96;71.54
54628;BME280;40525;55.926;21.066;2023-07-22T02:53:06;100926.67;;;16.96;72.80
54628;BME280;40525;55.926;21.066;2023-07-22T02:55:52;100927.14;;;16.95;73.86
54628;BME280;40525;55.926;21.066;2023-07-22T02:58:26;100924.38;;;16.94;74.30
54628;BME280;40525;55.926;21.066;2023-07-22T03:01:13;100925.98;;;16.94;74.29
54628;BME280;40525;55.926;21.066;2023-07-22T03:03:47;100933.06;;;16.94;74.43
54628;BME280;40525;55.926;21.066;2023-07-22T03:06:34;100928.84;;;16.93;74.51
54628;BME280;40525;55.926;21.066;2023-07-22T03:09:10;100924.52;;;16.94;74.01
54628;BME280;40525;55.926;21.066;2023-07-22T03:11:57;100926.45;;;16.92;74.75
54628;BME280;40525;55.926;21.066;2023-07-22T03:14:31;100928.76;;;16.87;74.97
54628;BME280;40525;55.926;21.066;2023-07-22T03:17:18;100924.97;;;16.86;74.80
54628;BME280;40525;55.926;21.066;2023-07-22T03:19:52;100924.63;;;16.85;74.48
54628;BME280;40525;55.926;21.066;2023-07-22T03:22:39;100923.75;;;16.85;74.50
54628;BME280;40525;55.926;21.066;2023-07-22T03:25:14;100917.19;;;16.82;74.40
54628;BME280;40525;55.926;21.066;2023-07-22T03:28:05;100917.11;;;16.80;73.93
54628;BME280;40525;55.926;21.066;2023-07-22T03:30:40;100914.61;;;16.81;73.66
54628;BME280;40525;55.926;21.066;2023-07-22T03:33:27;100912.04;;;16.85;73.49
54628;BME280;40525;55.926;21.066;2023-07-22T03:36:01;100915.49;;;16.86;73.45
54628;BME280;40525;55.926;21.066;2023-07-22T03:38:48;100911.48;;;16.85;73.16
54628;BME280;40525;55.926;21.066;2023-07-22T03:41:21;100908.89;;;16.84;73.07
54628;BME280;40525;55.926;21.066;2023-07-22T03:44:08;100907.95;;;16.82;72.90
54628;BME280;40525;55.926;21.066;2023-07-22T03:46:42;100909.41;;;16.81;72.67
54628;BME280;40525;55.926;21.066;2023-07-22T03:49:29;100905.89;;;16.81;72.61
54628;BME280;40525;55.926;21.066;2023-07-22T03:52:03;100906.38;;;16.82;72.79
54628;BME280;40525;55.926;21.066;2023-07-22T03:54:54;100907.64;;;16.84;72.75
54628;BME280;40525;55.926;21.066;2023-07-22T03:57:28;100906.55;;;16.87;72.80
54628;BME280;40525;55.926;21.066;2023-07-22T04:00:16;100904.42;;;16.90;72.66
54628;BME280;40525;55.926;21.066;2023-07-22T04:02:50;100903.29;;;16.91;72.52
54628;BME280;40525;55.926;21.066;2023-07-22T04:05:38;100902.78;;;16.90;72.45
54628;BME280;40525;55.926;21.066;2023-07-22T04:08:32;100900.36;;;16.92;72.21
54628;BME280;40525;55.926;21.066;2023-07-22T04:11:26;100903.31;;;16.98;72.06
54628;BME280;40525;55.926;21.066;2023-07-22T04:14:00;100907.83;;;17.07;72.04
54628;BME280;40525;55.926;21.066;2023-07-22T04:16:47;100905.91;;;17.14;72.03
54628;BME280;40525;55.926;21.066;2023-07-22T04:19:20;100902.38;;;17.16;72.13
54628;BME280;40525;55.926;21.066;2023-07-22T04:22:11;100903.16;;;17.15;71.74
54628;BME280;40525;55.926;21.066;2023-07-22T04:24:45;100901.30;;;17.14;71.52
54628;BME280;40525;55.926;21.066;2023-07-22T04:27:33;100895.52;;;17.10;71.33
54628;BME280;40525;55.926;21.066;2023-07-22T04:30:10;100897.52;;;17.12;71.22
54628;BME280;40525;55.926;21.066;2023-07-22T04:33:01;100897.66;;;17.15;71.04
54628;BME280;40525;55.926;21.066;2023-07-22T04:35:38;100893.47;;;17.20;70.66
54628;BME280;40525;55.926;21.066;2023-07-22T04:38:25;100895.48;;;17.24;70.48
54628;BME280;40525;55.926;21.066;2023-07-22T04:40:58;100896.42;;;17.25;70.27
54628;BME280;40525;55.926;21.066;2023-07-22T04:43:46;100900.16;;;17.30;70.16
54628;BME280;40525;55.926;21.066;2023-07-22T04:46:20;100897.06;;;17.39;70.33
54628;BME280;40525;55.926;21.066;2023-07-22T04:49:08;100901.13;;;17.49;70.24
54628;BME280;40525;55.926;21.066;2023-07-22T04:51:41;100899.73;;;17.59;69.75
54628;BME280;40525;55.926;21.066;2023-07-22T04:54:28;100906.36;;;17.68;69.58
54628;BME280;40525;55.926;21.066;2023-07-22T04:57:01;100903.80;;;17.76;69.10
54628;BME280;40525;55.926;21.066;2023-07-22T04:59:48;100900.86;;;17.85;69.03
54628;BME280;40525;55.926;21.066;2023-07-22T05:02:21;100902.26;;;17.92;68.58
54628;BME280;40525;55.926;21.066;2023-07-22T05:05:10;100904.07;;;17.95;68.21
54628;BME280;40525;55.926;21.066;2023-07-22T05:07:43;100904.43;;;18.00;68.08
54628;BME280;40525;55.926;21.066;2023-07-22T05:10:31;100902.77;;;18.10;67.84
54628;BME280;40525;55.926;21.066;2023-07-22T05:13:04;100901.05;;;18.21;67.57
54628;BME280;40525;55.926;21.066;2023-07-22T05:15:50;100896.45;;;18.33;67.40
54628;BME280;40525;55.926;21.066;2023-07-22T05:18:26;100897.32;;;18.45;67.01
54628;BME280;40525;55.926;21.066;2023-07-22T05:21:13;100894.30;;;18.54;66.69
54628;BME280;40525;55.926;21.066;2023-07-22T05:23:47;100893.01;;;18.64;66.35
54628;BME280;40525;55.926;21.066;2023-07-22T05:26:33;100893.14;;;18.74;66.19
54628;BME280;40525;55.926;21.066;2023-07-22T05:29:20;100894.52;;;18.88;65.98
54628;BME280;40525;55.926;21.066;2023-07-22T05:32:10;100896.17;;;18.97;65.76
54628;BME280;40525;55.926;21.066;2023-07-22T05:34:59;100888.96;;;18.98;65.45
54628;BME280;40525;55.926;21.066;2023-07-22T05:37:46;100881.57;;;18.99;65.33
54628;BME280;40525;55.926;21.066;2023-07-22T05:40:20;100881.16;;;19.07;65.29
54628;BME280;40525;55.926;21.066;2023-07-22T05:43:06;100884.58;;;19.09;64.73
54628;BME280;40525;55.926;21.066;2023-07-22T05:45:40;100882.50;;;19.08;64.85
54628;BME280;40525;55.926;21.066;2023-07-22T05:48:26;100878.48;;;19.07;64.82
54628;BME280;40525;55.926;21.066;2023-07-22T05:51:00;100875.91;;;19.06;64.96
54628;BME280;40525;55.926;21.066;2023-07-22T05:53:46;100873.14;;;19.02;64.66
54628;BME280;40525;55.926;21.066;2023-07-22T05:56:20;100880.89;;;18.99;64.74
54628;BME280;40525;55.926;21.066;2023-07-22T05:59:08;100882.30;;;18.88;64.81
54628;BME280;40525;55.926;21.066;2023-07-22T06:01:54;100878.20;;;18.81;65.32
54628;BME280;40525;55.926;21.066;2023-07-22T06:04:34;100877.88;;;18.83;65.59
54628;BME280;40525;55.926;21.066;2023-07-22T06:07:15;100879.52;;;18.85;65.79
54628;BME280;40525;55.926;21.066;2023-07-22T06:09:54;100875.52;;;18.83;65.87
54628;BME280;40525;55.926;21.066;2023-07-22T06:12:35;100878.09;;;18.87;66.20
54628;BME280;40525;55.926;21.066;2023-07-22T06:15:14;100879.52;;;18.94;66.41
54628;BME280;40525;55.926;21.066;2023-07-22T06:17:56;100876.52;;;19.02;66.29
54628;BME280;40525;55.926;21.066;2023-07-22T06:20:35;100875.55;;;19.03;66.22
54628;BME280;40525;55.926;21.066;2023-07-22T06:23:16;100874.14;;;19.01;66.07
54628;BME280;40525;55.926;21.066;2023-07-22T06:25:55;100872.41;;;19.11;66.21
54628;BME280;40525;55.926;21.066;2023-07-22T06:28:36;100870.30;;;19.16;65.11
54628;BME280;40525;55.926;21.066;2023-07-22T06:31:15;100865.48;;;19.07;65.12
54628;BME280;40525;55.926;21.066;2023-07-22T06:33:57;100863.71;;;19.04;65.52
54628;BME280;40525;55.926;21.066;2023-07-22T06:36:44;100866.55;;;19.00;65.49
54628;BME280;40525;55.926;21.066;2023-07-22T06:39:18;100867.38;;;18.96;65.66
54628;BME280;40525;55.926;21.066;2023-07-22T06:42:05;100862.45;;;18.93;65.87
54628;BME280;40525;55.926;21.066;2023-07-22T06:44:38;100862.13;;;18.95;66.10
54628;BME280;40525;55.926;21.066;2023-07-22T06:47:25;100861.48;;;19.03;66.24
54628;BME280;40525;55.926;21.066;2023-07-22T06:49:59;100864.23;;;19.12;65.98
54628;BME280;40525;55.926;21.066;2023-07-22T06:52:45;100863.71;;;19.16;66.00
54628;BME280;40525;55.926;21.066;2023-07-22T06:55:19;100868.73;;;19.22;65.86
54628;BME280;40525;55.926;21.066;2023-07-22T06:58:06;100868.21;;;19.22;65.47
54628;BME280;40525;55.926;21.066;2023-07-22T07:00:40;100867.16;;;19.19;65.62
54628;BME280;40525;55.926;21.066;2023-07-22T07:03:26;100870.04;;;19.22;65.60
54628;BME280;40525;55.926;21.066;2023-07-22T07:06:00;100861.84;;;19.21;65.46
54628;BME280;40525;55.926;21.066;2023-07-22T07:08:47;100861.98;;;19.24;65.63
54628;BME280;40525;55.926;21.066;2023-07-22T07:11:29;100860.56;;;19.28;65.59
54628;BME280;40525;55.926;21.066;2023-07-22T07:14:08;100857.55;;;19.28;65.41
54628;BME280;40525;55.926;21.066;2023-07-22T07:16:49;100861.84;;;19.24;65.38
54628;BME280;40525;55.926;21.066;2023-07-22T07:19:28;100867.52;;;19.15;65.59
54628;BME280;40525;55.926;21.066;2023-07-22T07:22:08;100870.74;;;19.05;65.42
54628;BME280;40525;55.926;21.066;2023-07-22T07:24:56;100877.41;;;18.93;65.79
54628;BME280;40525;55.926;21.066;2023-07-22T07:27:36;100874.66;;;18.85;66.20
54628;BME280;40525;55.926;21.066;2023-07-22T07:30:16;100872.87;;;18.83;66.48
54628;BME280;40525;55.926;21.066;2023-07-22T07:33:03;100880.85;;;18.84;66.60
54628;BME280;40525;55.926;21.066;2023-07-22T07:35:57;100881.44;;;18.87;66.84
54628;BME280;40525;55.926;21.066;2023-07-22T07:38:31;100879.09;;;18.93;66.91
54628;BME280;40525;55.926;21.066;2023-07-22T07:41:18;100877.72;;;18.96;66.86
54628;BME280;40525;55.926;21.066;2023-07-22T07:43:58;100883.46;;;18.96;66.80
54628;BME280;40525;55.926;21.066;2023-07-22T07:46:45;100885.54;;;18.90;66.81
54628;BME280;40525;55.926;21.066;2023-07-22T07:49:19;100880.45;;;18.87;66.76
54628;BME280;40525;55.926;21.066;2023-07-22T07:52:06;100883.98;;;18.82;67.32
54628;BME280;40525;55.926;21.066;2023-07-22T07:54:40;100889.06;;;18.76;67.34
54628;BME280;40525;55.926;21.066;2023-07-22T07:57:26;100892.55;;;18.70;68.14
54628;BME280;40525;55.926;21.066;2023-07-22T08:00:00;100891.29;;;18.68;69.24
54628;BME280;40525;55.926;21.066;2023-07-22T08:02:49;100890.07;;;18.67;69.99
54628;BME280;40525;55.926;21.066;2023-07-22T08:05:23;100892.98;;;18.66;70.36
54628;BME280;40525;55.926;21.066;2023-07-22T08:08:11;100899.02;;;18.71;70.81
54628;BME280;40525;55.926;21.066;2023-07-22T08:10:45;100895.73;;;18.80;72.17
54628;BME280;40525;55.926;21.066;2023-07-22T08:13:31;100898.63;;;18.84;71.81
54628;BME280;40525;55.926;21.066;2023-07-22T08:16:09;100895.46;;;18.90;72.27
54628;BME280;40525;55.926;21.066;2023-07-22T08:18:56;100894.25;;;18.99;72.39
54628;BME280;40525;55.926;21.066;2023-07-22T08:21:30;100891.55;;;19.11;72.27
54628;BME280;40525;55.926;21.066;2023-07-22T08:24:16;100896.36;;;19.16;71.80
54628;BME280;40525;55.926;21.066;2023-07-22T08:26:50;100895.55;;;19.17;71.45
54628;BME280;40525;55.926;21.066;2023-07-22T08:29:37;100896.81;;;19.23;70.77
54628;BME280;40525;55.926;21.066;2023-07-22T08:32:11;100892.31;;;19.30;70.37
54628;BME280;40525;55.926;21.066;2023-07-22T08:34:57;100889.21;;;19.38;69.67
54628;BME280;40525;55.926;21.066;2023-07-22T08:37:31;100890.52;;;19.48;69.33
54628;BME280;40525;55.926;21.066;2023-07-22T08:40:17;100893.95;;;19.48;68.10
54628;BME280;40525;55.926;21.066;2023-07-22T08:42:51;100892.96;;;19.40;67.92
54628;BME280;40525;55.926;21.066;2023-07-22T08:45:40;100896.95;;;19.30;67.28
54628;BME280;40525;55.926;21.066;2023-07-22T08:48:16;100896.30;;;19.21;67.33
54628;BME280;40525;55.926;21.066;2023-07-22T08:51:15;100893.68;;;19.18;67.55
54628;BME280;40525;55.926;21.066;2023-07-22T08:54:00;100899.98;;;19.15;67.81
54628;BME280;40525;55.926;21.066;2023-07-22T08:56:44;100902.44;;;19.13;67.84
54628;BME280;40525;55.926;21.066;2023-07-22T08:59:25;100900.38;;;19.07;68.21
54628;BME280;40525;55.926;21.066;2023-07-22T09:02:08;100898.67;;;19.06;68.42
54628;BME280;40525;55.926;21.066;2023-07-22T09:04:57;100892.14;;;19.12;68.69
54628;BME280;40525;55.926;21.066;2023-07-22T09:07:51;100891.05;;;19.24;68.71
54628;BME280;40525;55.926;21.066;2023-07-22T09:10:27;100891.23;;;19.31;68.34
54628;BME280;40525;55.926;21.066;2023-07-22T09:13:15;100889.23;;;19.38;67.83
54628;BME280;40525;55.926;21.066;2023-07-22T09:15:49;100893.91;;;19.39;67.69
54628;BME280;40525;55.926;21.066;2023-07-22T09:18:36;100892.48;;;19.46;67.63
54628;BME280;40525;55.926;21.066;2023-07-22T09:21:10;100891.14;;;19.58;67.38
54628;BME280;40525;55.926;21.066;2023-07-22T09:23:56;100893.23;;;19.68;66.48
54628;BME280;40525;55.926;21.066;2023-07-22T09:26:36;100897.22;;;19.72;66.84
54628;BME280;40525;55.926;21.066;2023-07-22T09:29:17;100897.35;;;19.68;67.46
54628;BME280;40525;55.926;21.066;2023-07-22T09:31:58;100899.58;;;19.62;67.83
54628;BME280;40525;55.926;21.066;2023-07-22T09:34:54;100905.25;;;19.51;68.32
54628;BME280;40525;55.926;21.066;2023-07-22T09:37:38;100911.01;;;19.28;69.24
54628;BME280;40525;55.926;21.066;2023-07-22T09:40:21;100912.27;;;19.17;69.81
54628;BME280;40525;55.926;21.066;2023-07-22T09:43:02;100914.42;;;19.19;70.02
54628;BME280;40525;55.926;21.066;2023-07-22T09:45:46;100915.67;;;19.21;70.27
54628;BME280;40525;55.926;21.066;2023-07-22T09:48:27;100919.14;;;19.20;70.48
54628;BME280;40525;55.926;21.066;2023-07-22T09:51:12;100916.71;;;19.17;70.32
54628;BME280;40525;55.926;21.066;2023-07-22T09:54:01;100907.92;;;19.16;70.66
54628;BME280;40525;55.926;21.066;2023-07-22T09:56:49;100903.36;;;19.26;70.51
54628;BME280;40525;55.926;21.066;2023-07-22T09:59:30;100910.83;;;19.35;70.04
54628;BME280;40525;55.926;21.066;2023-07-22T10:02:11;100907.95;;;19.40;70.26
54628;BME280;40525;55.926;21.066;2023-07-22T10:04:59;100905.48;;;19.58;70.28
54628;BME280;40525;55.926;21.066;2023-07-22T10:07:57;100905.77;;;19.67;69.37
54628;BME280;40525;55.926;21.066;2023-07-22T10:10:33;100901.51;;;19.74;69.01
54628;BME280;40525;55.926;21.066;2023-07-22T10:13:20;100897.81;;;19.84;68.73
54628;BME280;40525;55.926;21.066;2023-07-22T10:15:55;100898.84;;;19.94;67.61
54628;BME280;40525;55.926;21.066;2023-07-22T10:18:43;100902.66;;;19.99;66.72
54628;BME280;40525;55.926;21.066;2023-07-22T10:21:18;100900.77;;;20.01;65.73
54628;BME280;40525;55.926;21.066;2023-07-22T10:24:05;100902.16;;;19.94;65.36
54628;BME280;40525;55.926;21.066;2023-07-22T10:26:40;100899.64;;;19.72;65.27
54628;BME280;40525;55.926;21.066;2023-07-22T10:29:33;100898.48;;;19.66;65.99
54628;BME280;40525;55.926;21.066;2023-07-22T10:32:14;100896.23;;;19.64;66.02
54628;BME280;40525;55.926;21.066;2023-07-22T10:34:55;100893.84;;;19.63;65.99
54628;BME280;40525;55.926;21.066;2023-07-22T10:37:36;100902.86;;;19.66;66.07
54628;BME280;40525;55.926;21.066;2023-07-22T10:43:09;100908.73;;;19.52;67.18
54628;BME280;40525;55.926;21.066;2023-07-22T10:45:53;100909.62;;;19.41;67.40
54628;BME280;40525;55.926;21.066;2023-07-22T10:48:35;100917.23;;;19.29;67.74
54628;BME280;40525;55.926;21.066;2023-07-22T10:51:15;100918.13;;;19.15;67.81
54628;BME280;40525;55.926;21.066;2023-07-22T10:53:55;100919.14;;;19.00;67.80
54628;BME280;40525;55.926;21.066;2023-07-22T10:56:35;100923.15;;;18.89;67.56
54628;BME280;40525;55.926;21.066;2023-07-22T10:59:26;100921.80;;;18.77;67.73
54628;BME280;40525;55.926;21.066;2023-07-22T11:02:23;100925.36;;;18.62;67.16
54628;BME280;40525;55.926;21.066;2023-07-22T11:05:11;100923.48;;;18.42;66.80
54628;BME280;40525;55.926;21.066;2023-07-22T11:08:05;100924.58;;;18.35;67.37
54628;BME280;40525;55.926;21.066;2023-07-22T11:10:54;100927.68;;;18.39;67.56
54628;BME280;40525;55.926;21.066;2023-07-22T11:13:41;100926.13;;;18.36;67.42
54628;BME280;40525;55.926;21.066;2023-07-22T11:16:15;100923.32;;;18.28;67.25
54628;BME280;40525;55.926;21.066;2023-07-22T11:19:03;100921.66;;;18.24;67.35
54628;BME280;40525;55.926;21.066;2023-07-22T11:21:36;100919.45;;;18.23;67.02
54628;BME280;40525;55.926;21.066;2023-07-22T11:24:23;100920.42;;;18.19;66.67
54628;BME280;40525;55.926;21.066;2023-07-22T11:26:57;100923.17;;;18.09;66.13
54628;BME280;40525;55.926;21.066;2023-07-22T11:29:48;100924.30;;;17.90;65.94
54628;BME280;40525;55.926;21.066;2023-07-22T11:32:22;100930.95;;;17.70;66.22
54628;BME280;40525;55.926;21.066;2023-07-22T11:35:09;100934.55;;;17.51;66.71
54628;BME280;40525;55.926;21.066;2023-07-22T11:37:49;100935.25;;;17.42;66.96
54628;BME280;40525;55.926;21.066;2023-07-22T11:40:41;100933.09;;;17.37;67.42
54628;BME280;40525;55.926;21.066;2023-07-22T11:43:21;100931.33;;;17.34;67.89
54628;BME280;40525;55.926;21.066;2023-07-22T11:46:05;100932.04;;;17.34;68.40
54628;BME280;40525;55.926;21.066;2023-07-22T11:48:50;100930.27;;;17.32;68.60
54628;BME280;40525;55.926;21.066;2023-07-22T11:51:34;100926.70;;;17.34;68.68
54628;BME280;40525;55.926;21.066;2023-07-22T11:54:14;100928.05;;;17.38;68.69
54628;BME280;40525;55.926;21.066;2023-07-22T11:56:55;100929.35;;;17.40;68.81
54628;BME280;40525;55.926;21.066;2023-07-22T11:59:38;100938.23;;;17.37;68.76
54628;BME280;40525;55.926;21.066;2023-07-22T12:02:25;100941.60;;;17.30;68.71
54628;BME280;40525;55.926;21.066;2023-07-22T12:05:21;100940.90;;;17.19;69.17
54628;BME280;40525;55.926;21.066;2023-07-22T12:08:15;100947.30;;;17.11;69.94
54628;BME280;40525;55.926;21.066;2023-07-22T12:10:56;100954.70;;;17.00;71.36
54628;BME280;40525;55.926;21.066;2023-07-22T12:13:44;100959.20;;;16.85;71.80
54628;BME280;40525;55.926;21.066;2023-07-22T12:16:23;100963.27;;;16.67;72.38
54628;BME280;40525;55.926;21.066;2023-07-22T12:19:10;100957.30;;;16.55;73.01
54628;BME280;40525;55.926;21.066;2023-07-22T12:21:43;100951.92;;;16.51;73.41
54628;BME280;40525;55.926;21.066;2023-07-22T12:24:30;100955.30;;;16.43;74.46
54628;BME280;40525;55.926;21.066;2023-07-22T12:27:04;100953.40;;;16.36;74.87
54628;BME280;40525;55.926;21.066;2023-07-22T12:29:51;100948.70;;;16.40;74.85
54628;BME280;40525;55.926;21.066;2023-07-22T12:32:24;100941.27;;;16.51;75.16
54628;BME280;40525;55.926;21.066;2023-07-22T12:35:12;100929.17;;;16.57;75.19
54628;BME280;40525;55.926;21.066;2023-07-22T12:37:46;100929.98;;;16.69;75.43
54628;BME280;40525;55.926;21.066;2023-07-22T12:40:32;100927.55;;;16.76;75.58
54628;BME280;40525;55.926;21.066;2023-07-22T12:43:06;100922.20;;;16.78;75.63
54628;BME280;40525;55.926;21.066;2023-07-22T12:45:52;100917.15;;;16.85;75.76
54628;BME280;40525;55.926;21.066;2023-07-22T12:48:26;100905.52;;;17.02;76.25
54628;BME280;40525;55.926;21.066;2023-07-22T12:51:12;100899.87;;;17.20;75.92
54628;BME280;40525;55.926;21.066;2023-07-22T12:53:46;100900.55;;;17.37;75.68
54628;BME280;40525;55.926;21.066;2023-07-22T12:56:33;100905.16;;;17.70;75.75
54628;BME280;40525;55.926;21.066;2023-07-22T12:59:07;100901.88;;;17.98;75.35
54628;BME280;40525;55.926;21.066;2023-07-22T13:01:54;100901.08;;;18.13;75.05
54628;BME280;40525;55.926;21.066;2023-07-22T13:04:28;100905.73;;;18.18;74.67
54628;BME280;40525;55.926;21.066;2023-07-22T13:07:14;100908.48;;;18.15;73.72
54628;BME280;40525;55.926;21.066;2023-07-22T13:09:48;100906.13;;;18.08;72.72
54628;BME280;40525;55.926;21.066;2023-07-22T13:12:38;100912.38;;;17.98;72.44
54628;BME280;40525;55.926;21.066;2023-07-22T13:15:12;100919.55;;;17.90;72.46
54628;BME280;40525;55.926;21.066;2023-07-22T13:17:58;100920.38;;;17.80;72.64
54628;BME280;40525;55.926;21.066;2023-07-22T13:20:32;100920.56;;;17.75;73.06
54628;BME280;40525;55.926;21.066;2023-07-22T13:23:20;100919.77;;;17.72;73.50
54628;BME280;40525;55.926;21.066;2023-07-22T13:25:54;100916.54;;;17.70;73.61
54628;BME280;40525;55.926;21.066;2023-07-22T13:28:40;100913.05;;;17.69;73.72
54628;BME280;40525;55.926;21.066;2023-07-22T13:31:15;100909.84;;;17.66;73.91
54628;BME280;40525;55.926;21.066;2023-07-22T13:34:01;100905.70;;;17.72;74.47
54628;BME280;40525;55.926;21.066;2023-07-22T13:36:35;100907.66;;;17.84;74.43
54628;BME280;40525;55.926;21.066;2023-07-22T13:39:22;100909.93;;;17.90;74.20
54628;BME280;40525;55.926;21.066;2023-07-22T13:41:56;100909.32;;;18.01;74.18
54628;BME280;40525;55.926;21.066;2023-07-22T13:44:42;100909.17;;;18.05;73.74
54628;BME280;40525;55.926;21.066;2023-07-22T13:47:23;100909.83;;;18.04;73.34
54628;BME280;40525;55.926;21.066;2023-07-22T13:50:03;100911.48;;;18.07;73.41
54628;BME280;40525;55.926;21.066;2023-07-22T13:52:44;100911.83;;;18.15;73.50
54628;BME280;40525;55.926;21.066;2023-07-22T13:55:24;100911.39;;;18.19;73.41
54628;BME280;40525;55.926;21.066;2023-07-22T13:58:04;100904.45;;;18.25;73.63